Terminal Aerodrome Forecast
Issued by NWS

Home | Current Version | Previous Version | Graphics & Text | Print | Product List | Glossary On
Versions: 1 2 3 4 5 6 7 8 9 10 11 12 13 14 15 16 17 18 19 20 21 22 23 24 25 26 27 28 29 30 31 32 33
000
FTUS43 KLOT 231159 CCA
TAFORD
TAF COR
KORD 231159Z 2312/2418 15005KT P6SM SCT200
     FM231600 17010KT P6SM SCT060 BKN100
     FM232000 14011KT P6SM BKN070
     FM240100 15006KT P6SM BKN070
     FM241000 16008KT P6SM SCT040 BKN060 PROB30 2414/2418 -SHRA=

USA.gov is the U.S. government's official web portal to all federal, state and local government web resources and services.